createdAt,value
2022-10-11T00:02:40.437Z,5.72
2022-10-11T00:07:41.936Z,5.58
2022-10-11T00:12:44.178Z,5.36
2022-10-11T00:17:45.905Z,5.50
2022-10-11T00:22:49.220Z,5.47
2022-10-11T00:27:52.688Z,5.28
2022-10-11T00:32:54.397Z,5.12
2022-10-11T00:37:56.586Z,5.22
2022-10-11T00:42:58.124Z,5.17
2022-10-11T00:48:04.518Z,4.92
2022-10-11T00:53:12.310Z,4.89
2022-10-11T00:58:14.227Z,4.62
2022-10-11T01:03:33.331Z,4.78
2022-10-11T01:08:35.161Z,4.89
2022-10-11T01:20:23.440Z,4.61
2022-10-11T01:25:49.503Z,4.70
2022-10-11T01:30:53.082Z,4.54
2022-10-11T01:36:01.425Z,4.41
2022-10-11T01:41:13.298Z,4.61
2022-10-11T01:46:15.880Z,4.39
2022-10-11T01:51:22.026Z,4.63
2022-10-11T01:56:42.453Z,4.16
2022-10-11T02:02:13.226Z,4.61
2022-10-11T02:07:29.755Z,4.53
2022-10-11T02:12:38.227Z,4.42
2022-10-11T02:17:44.546Z,4.01
2022-10-11T02:22:49.821Z,4.34
2022-10-11T02:27:54.701Z,4.41
2022-10-11T02:32:58.784Z,4.31
2022-10-11T02:38:23.518Z,4.24
2022-10-11T02:43:41.650Z,3.81
2022-10-11T02:48:43.241Z,4.13
2022-10-11T02:53:44.765Z,3.99
2022-10-11T02:58:46.605Z,4.09
2022-10-11T03:03:48.236Z,4.21
2022-10-11T03:08:49.750Z,4.36
2022-10-11T03:13:51.340Z,4.28
2022-10-11T03:18:52.859Z,3.96
2022-10-11T03:23:54.361Z,4.05
2022-10-11T03:28:55.918Z,4.10
2022-10-11T03:33:57.466Z,4.28
2022-10-11T03:39:00.113Z,4.03
2022-10-11T03:44:01.599Z,3.97
2022-10-11T03:49:03.173Z,4.11
2022-10-11T03:54:04.702Z,4.13
2022-10-11T03:59:06.203Z,4.14
2022-10-11T04:04:07.829Z,3.85
2022-10-11T04:09:09.604Z,3.30
2022-10-11T04:14:11.071Z,3.31
2022-10-11T04:19:12.567Z,3.47
2022-10-11T04:24:14.113Z,3.61
2022-10-11T04:29:15.887Z,3.53
2022-10-11T04:34:17.831Z,3.32
2022-10-11T04:39:19.344Z,3.40
2022-10-11T04:44:20.847Z,3.34
2022-10-11T04:49:22.548Z,2.66
2022-10-11T04:54:24.063Z,2.63
2022-10-11T04:59:25.581Z,2.57
2022-10-11T05:04:27.502Z,2.81
2022-10-11T05:09:29.054Z,2.69
2022-10-11T05:14:30.603Z,2.49
2022-10-11T05:19:32.107Z,2.46
2022-10-11T05:24:33.643Z,2.27
2022-10-11T05:29:35.206Z,2.45
2022-10-11T05:34:36.707Z,2.41
2022-10-11T05:39:40.612Z,2.45
2022-10-11T05:44:42.139Z,2.39
2022-10-11T05:56:43.228Z,2.11
2022-10-11T06:01:44.802Z,2.20
2022-10-11T06:06:46.338Z,2.21
2022-10-11T06:11:47.809Z,2.18
2022-10-11T06:16:49.367Z,2.31
2022-10-11T06:21:51.616Z,2.34
2022-10-11T06:26:53.435Z,2.73
2022-10-11T06:31:55.002Z,3.04
2022-10-11T06:36:56.678Z,3.56
2022-10-11T06:41:58.240Z,3.15
2022-10-11T06:46:59.870Z,3.54
2022-10-11T06:52:01.598Z,4.20
2022-10-11T06:57:03.141Z,4.19
2022-10-11T07:02:04.667Z,4.50
2022-10-11T07:07:06.250Z,5.06
2022-10-11T07:12:19.168Z,6.01
2022-10-11T07:17:20.848Z,6.84
2022-10-11T07:22:22.393Z,7.31
2022-10-11T07:27:23.973Z,7.39
2022-10-11T07:32:25.519Z,8.11
2022-10-11T07:37:27.187Z,7.48
2022-10-11T07:42:28.701Z,8.15
2022-10-11T07:47:30.423Z,8.03
2022-10-11T07:52:31.919Z,8.45
2022-10-11T07:57:33.409Z,8.23
2022-10-11T08:02:35.003Z,8.38
2022-10-11T08:07:37.359Z,8.90
2022-10-11T08:12:38.884Z,9.02
2022-10-11T08:17:40.369Z,9.31
2022-10-11T08:22:42.016Z,9.39
2022-10-11T08:27:43.641Z,9.25
2022-10-11T08:32:45.196Z,9.92
2022-10-11T08:37:46.977Z,10.24
2022-10-11T08:42:58.338Z,10.75
2022-10-11T08:48:13.316Z,10.83
2022-10-11T08:53:44.844Z,12.09
2022-10-11T08:58:57.791Z,12.89
2022-10-11T09:04:00.172Z,12.76
2022-10-11T09:09:22.637Z,13.82
2022-10-11T09:15:05.831Z,14.02
2022-10-11T09:20:36.192Z,14.30
2022-10-11T09:25:53.070Z,15.08
2022-10-11T09:30:57.764Z,14.99
2022-10-11T09:35:59.912Z,15.04
2022-10-11T09:41:21.875Z,14.95
2022-10-11T09:47:03.079Z,15.80
2022-10-11T09:52:15.561Z,15.42
2022-10-11T09:57:23.737Z,15.91
2022-10-11T10:02:26.144Z,15.78
2022-10-11T10:07:29.965Z,16.06
2022-10-11T10:12:31.484Z,15.52
2022-10-11T10:17:33.545Z,15.94
2022-10-11T10:22:35.713Z,16.14
2022-10-11T10:27:37.906Z,16.42
2022-10-11T10:32:52.245Z,16.49
2022-10-11T10:38:05.727Z,17.01
2022-10-11T10:43:15.645Z,16.90
2022-10-11T10:49:23.657Z,17.06
2022-10-11T10:54:47.240Z,16.81
2022-10-11T11:00:15.702Z,16.74
2022-10-11T11:05:45.501Z,17.22
2022-10-11T11:11:03.865Z,16.44
2022-10-11T11:16:16.145Z,17.88
2022-10-11T11:21:41.813Z,17.66
2022-10-11T11:27:06.497Z,17.89
2022-10-11T11:32:21.962Z,17.94
2022-10-11T11:37:37.213Z,17.75
2022-10-11T11:42:51.326Z,17.73
2022-10-11T11:48:00.414Z,18.33
2022-10-11T11:53:12.579Z,17.56
2022-10-11T11:58:36.006Z,17.29
2022-10-11T12:03:55.746Z,15.85
2022-10-11T12:09:03.835Z,15.67
2022-10-11T12:14:32.982Z,15.31
2022-10-11T12:19:35.782Z,14.80
2022-10-11T12:24:59.194Z,15.85
2022-10-11T12:30:00.662Z,16.33
2022-10-11T12:35:30.715Z,17.58
2022-10-11T12:40:35.719Z,16.46
2022-10-11T12:45:37.322Z,16.73
2022-10-11T12:50:53.024Z,17.39
2022-10-11T12:56:23.504Z,16.53
2022-10-11T13:01:36.233Z,16.08
2022-10-11T13:06:47.808Z,15.93
2022-10-11T13:11:57.654Z,16.15
2022-10-11T13:17:07.543Z,16.95
2022-10-11T13:22:23.611Z,16.77
2022-10-11T13:27:27.326Z,16.68
2022-10-11T13:32:31.154Z,16.53
2022-10-11T13:37:42.271Z,16.25
2022-10-11T13:42:46.051Z,16.65
2022-10-11T13:47:49.244Z,17.26
2022-10-11T13:53:00.720Z,16.99
2022-10-11T13:58:10.657Z,16.29
2022-10-11T14:03:52.360Z,15.69
2022-10-11T14:08:56.966Z,15.29
2022-10-11T14:13:58.731Z,15.03
2022-10-11T14:19:00.179Z,15.09
2022-10-11T14:24:10.617Z,15.23
2022-10-11T14:29:31.978Z,14.91
2022-10-11T14:34:34.660Z,14.82
2022-10-11T14:39:36.879Z,14.88
2022-10-11T14:44:38.448Z,14.82
2022-10-11T14:49:40.075Z,14.83
2022-10-11T14:54:41.670Z,14.97
2022-10-11T14:59:43.167Z,14.72
2022-10-11T15:04:44.750Z,14.88
2022-10-11T15:09:46.384Z,14.88
2022-10-11T15:14:47.895Z,14.71
2022-10-11T15:19:50.763Z,14.97
2022-10-11T15:24:52.239Z,14.74
2022-10-11T15:29:53.755Z,14.76
2022-10-11T15:34:55.214Z,14.89
2022-10-11T15:39:56.760Z,15.05
2022-10-11T15:44:59.323Z,14.99
2022-10-11T15:50:00.961Z,14.47
2022-10-11T15:55:03.737Z,14.69
2022-10-11T16:00:05.675Z,14.33
2022-10-11T16:05:13.368Z,14.04
2022-10-11T16:10:15.118Z,13.96
2022-10-11T16:15:17.187Z,13.57
2022-10-11T16:20:22.341Z,13.37
2022-10-11T16:25:24.485Z,13.11
2022-10-11T16:30:27.013Z,12.90
2022-10-11T16:35:32.427Z,12.56
2022-10-11T16:40:35.866Z,12.19
2022-10-11T16:45:37.836Z,11.98
2022-10-11T16:50:39.846Z,11.82
2022-10-11T16:55:41.426Z,11.47
2022-10-11T17:00:44.026Z,11.17
2022-10-11T17:05:45.844Z,11.03
2022-10-11T17:10:57.671Z,10.63
2022-10-11T17:15:59.469Z,10.48
2022-10-11T17:21:05.814Z,10.33
2022-10-11T17:26:11.368Z,10.27
2022-10-11T17:31:13.409Z,10.06
2022-10-11T17:36:24.114Z,9.93
2022-10-11T17:41:31.788Z,9.76
2022-10-11T17:46:36.699Z,9.63
2022-10-11T17:51:39.195Z,9.18
2022-10-11T17:56:41.950Z,8.93
2022-10-11T18:01:43.716Z,8.64
2022-10-11T18:06:46.527Z,8.35
2022-10-11T18:11:48.632Z,8.57
2022-10-11T18:16:51.594Z,7.82
2022-10-11T18:22:01.996Z,8.08
2022-10-11T18:27:06.021Z,8.16
2022-10-11T18:32:07.521Z,7.92
2022-10-11T18:37:09.014Z,7.68
2022-10-11T18:42:10.488Z,7.58
2022-10-11T18:47:12.220Z,7.87
2022-10-11T18:52:13.738Z,7.60
2022-10-11T18:57:15.534Z,7.02
2022-10-11T19:02:17.086Z,7.34
2022-10-11T19:07:19.726Z,7.39
2022-10-11T19:12:21.259Z,7.32
2022-10-11T19:17:23.267Z,7.21
2022-10-11T19:22:24.739Z,7.15
2022-10-11T19:27:26.240Z,6.89
2022-10-11T19:32:49.373Z,6.63
2022-10-11T19:37:59.750Z,6.62
2022-10-11T19:43:01.323Z,6.50
2022-10-11T19:48:02.952Z,6.55
2022-10-11T19:53:05.042Z,6.61
2022-10-11T19:58:08.362Z,6.47
2022-10-11T20:03:09.993Z,6.55
2022-10-11T20:08:11.565Z,6.13
2022-10-11T20:13:13.061Z,6.18
2022-10-11T20:18:14.543Z,6.05
2022-10-11T20:23:18.163Z,5.87
2022-10-11T20:28:19.895Z,5.91
2022-10-11T20:33:21.546Z,5.86
2022-10-11T20:38:23.141Z,5.69
2022-10-11T20:43:25.020Z,5.43
2022-10-11T20:48:26.615Z,5.62
2022-10-11T20:53:30.217Z,5.58
2022-10-11T20:58:31.750Z,5.47
2022-10-11T21:03:33.366Z,5.49
2022-10-11T21:08:36.257Z,5.47
2022-10-11T21:13:38.392Z,5.35
2022-10-11T21:18:40.566Z,5.06
2022-10-11T21:23:42.121Z,5.29
2022-10-11T21:28:44.783Z,5.17
2022-10-11T21:33:46.363Z,5.03
2022-10-11T21:38:49.841Z,5.01
2022-10-11T21:43:51.837Z,4.63
2022-10-11T21:48:53.657Z,4.70
2022-10-11T21:53:56.180Z,4.70
2022-10-11T21:58:57.722Z,4.63
2022-10-11T22:03:59.272Z,4.61
2022-10-11T22:09:00.908Z,4.54
2022-10-11T22:14:03.447Z,4.55
2022-10-11T22:19:04.995Z,4.30
2022-10-11T22:24:06.728Z,4.41
2022-10-11T22:29:08.535Z,4.07
2022-10-11T22:34:10.037Z,4.05
2022-10-11T22:39:11.583Z,4.04
2022-10-11T22:44:13.503Z,3.99
2022-10-11T22:49:15.026Z,3.73
2022-10-11T22:54:16.553Z,3.47
2022-10-11T22:59:18.127Z,3.81
2022-10-11T23:04:20.847Z,3.83
2022-10-11T23:09:22.411Z,3.63
2022-10-11T23:14:23.990Z,3.78
2022-10-11T23:19:25.486Z,3.63
2022-10-11T23:24:27.002Z,3.51
2022-10-11T23:29:32.131Z,3.54
2022-10-11T23:34:33.938Z,3.61
2022-10-11T23:39:35.507Z,3.38
2022-10-11T23:44:37.234Z,3.47
2022-10-11T23:49:38.910Z,3.43
2022-10-11T23:54:40.461Z,3.02
2022-10-11T23:59:41.910Z,3.25
